Phoenix Cross — MRBQ7 — position and weather

sailwx.info

Track history (hours):
 
Tides and Currents Weather Stations Pressure Air Temp Water Temp Dewpoint Dewpoint Depression Visibility Wind Speed Wind Dir Waves Ship Positions

Phoenix Cross

Last reported at 2014-Aug-29 17:33 UTC. Time now 2014-Aug-29 22:30 UTC.
Position N 54°35' W 001°13'.

Length 30 m; draft 5 m.

Type: Ship. MMSI: 235067452.

Date/timePositionNaut miles runAvg speedWind from/ knotsBaromVisibWave heightAir tempDewpointWater temp
2014-Aug-29 17:33N 54°35' W 001°13'0 0.0
2014-Aug-29 15:33N 54°35' W 001°13'0 0.0
2014-Aug-29 14:33N 54°35' W 001°13'0 0.0
2014-Aug-29 13:33N 54°35' W 001°13'0 0.0
2014-Aug-29 12:32N 54°35' W 001°13'0 0.0
2014-Aug-29 11:32N 54°35' W 001°13'0 0.0
2014-Aug-29 10:33N 54°35' W 001°13'0 0.0
2014-Aug-29 09:33N 54°35' W 001°13'0 0.0
2014-Aug-29 08:34N 54°35' W 001°13'0 0.0
2014-Aug-29 07:34N 54°35' W 001°13'0 0.0
2014-Aug-29 06:33N 54°35' W 001°13'1 1.4
2014-Aug-29 05:31N 54°36' W 001°15'2 0.2
2014-Aug-28 17:33N 54°35' W 001°12'0 0.0
2014-Aug-28 16:33N 54°35' W 001°12'0 0.0
2014-Aug-28 15:33N 54°35' W 001°12'0 0.0
2014-Aug-28 14:33N 54°35' W 001°12'0 0.0
2014-Aug-28 13:33N 54°35' W 001°12'0 0.0
2014-Aug-28 12:33N 54°35' W 001°12'0 0.0
2014-Aug-28 11:31N 54°35' W 001°12'0 0.0
2014-Aug-28 10:33N 54°35' W 001°12'0 0.0
2014-Aug-28 09:33N 54°35' W 001°12'0 0.0
2014-Aug-28 08:33N 54°35' W 001°12'0 0.0
2014-Aug-28 07:33N 54°35' W 001°12'1 0.7
2014-Aug-28 06:32N 54°35' W 001°13'0 0.0
2014-Aug-27 16:29N 54°35' W 001°13'0 0.0
2014-Aug-27 15:33N 54°35' W 001°13'0 0.0
2014-Aug-27 14:33N 54°35' W 001°13'0 0.0
2014-Aug-27 13:32N 54°35' W 001°13'0 0.0
2014-Aug-27 12:31N 54°35' W 001°13'0 0.0
2014-Aug-27 11:32N 54°35' W 001°13'0 0.0
2014-Aug-27 10:33N 54°35' W 001°13'0 0.0
2014-Aug-27 09:30N 54°35' W 001°13'0 0.0
2014-Aug-27 08:33N 54°35' W 001°13'2 1.9
2014-Aug-27 07:33N 54°36' W 001°10'2 1.8
2014-Aug-27 06:33N 54°38' W 001°10'2 2.4
2014-Aug-27 05:34N 54°36' W 001°11'1 0.1
2014-Aug-26 14:32N 54°36' W 001°10'0 0.0
2014-Aug-26 13:33N 54°36' W 001°10'0 0.0
2014-Aug-26 12:33N 54°36' W 001°10'0 0.2
2014-Aug-26 11:34N 54°36' W 001°10'1 1.0
2014-Aug-26 10:33N 54°37' W 001°09'3 3.2
2014-Aug-26 09:32N 54°35' W 001°13'0 0.0
2014-Aug-26 08:33N 54°35' W 001°13'0 0.0
2014-Aug-25 14:32N 54°35' W 001°13'0 0.0
2014-Aug-25 13:33N 54°35' W 001°13'0 0.0
2014-Aug-25 12:33N 54°35' W 001°13'0 0.0
2014-Aug-25 11:32N 54°35' W 001°13'0 0.0
2014-Aug-25 10:32N 54°35' W 001°13'0 0.0
2014-Aug-25 09:33N 54°35' W 001°13'0 0.0
2014-Aug-25 08:32N 54°35' W 001°13'0 0.0
2014-Aug-25 07:30N 54°35' W 001°13'0 0.0
2014-Aug-25 06:33N 54°35' W 001°13'0 0.0
2014-Aug-24 14:34N 54°35' W 001°13'0 0.0
2014-Aug-24 13:33N 54°35' W 001°13'0 0.0
2014-Aug-24 12:33N 54°35' W 001°13'0 0.0
2014-Aug-24 11:32N 54°35' W 001°13'0 0.0
2014-Aug-24 10:34N 54°35' W 001°13'0 0.0
2014-Aug-24 09:33N 54°35' W 001°13'0 0.0
2014-Aug-24 08:33N 54°35' W 001°13'0 0.0
2014-Aug-24 07:33N 54°35' W 001°13'0 0.0
2014-Aug-24 06:33N 54°35' W 001°13'0 0.0
2014-Aug-22 15:33N 54°35' W 001°13'0 0.0
2014-Aug-22 14:33N 54°35' W 001°13'0 0.0
2014-Aug-22 13:32N 54°35' W 001°13'0 0.0
2014-Aug-22 12:33N 54°35' W 001°13'0 0.0
2014-Aug-22 11:33N 54°35' W 001°13'3 3.0
2014-Aug-22 10:34N 54°37' W 001°09'2 2.4
2014-Aug-22 09:33N 54°35' W 001°12'1 0.6
2014-Aug-22 08:33N 54°35' W 001°13'2 2.2
2014-Aug-22 07:31N 54°36' W 001°10'1 1.5
2014-Aug-22 06:33N 54°38' W 001°10'3 3.1
2014-Aug-22 05:33N 54°35' W 001°12'0 0.0
2014-Aug-21 16:15N 54°35' W 001°13'0 0.0
2014-Aug-21 15:33N 54°35' W 001°13'0 0.0
2014-Aug-21 14:33N 54°35' W 001°13'0 0.0
2014-Aug-21 13:32N 54°35' W 001°13'0 0.0
2014-Aug-21 12:34N 54°35' W 001°13'0 0.0
2014-Aug-21 11:29N 54°35' W 001°13'0 0.0
2014-Aug-21 10:33N 54°35' W 001°13'0 0.0
2014-Aug-21 09:34N 54°35' W 001°13'0 0.0
2014-Aug-21 08:31N 54°35' W 001°13'0 0.0
2014-Aug-21 07:17N 54°35' W 001°13'0 0.0
2014-Aug-21 06:28N 54°35' W 001°13'  
Track history (hours):
 
Tides and Currents Weather Stations Pressure Air Temp Water Temp Dewpoint Dewpoint Depression Visibility Wind Speed Wind Dir Waves Ship Positions

Phoenix Cross

Last reported at 2014-Aug-29 17:33 UTC. Time now 2014-Aug-29 22:30 UTC.
Position N 54°35' W 001°13'.

Length 30 m; draft 5 m.

Type: Ship. MMSI: 235067452.

Date/timePositionNaut miles runAvg speedWind from/ knotsBaromVisibWave heightAir tempDewpointWater temp
2014-Aug-29 17:33N 54°35' W 001°13'0 0.0
2014-Aug-29 15:33N 54°35' W 001°13'0 0.0
2014-Aug-29 14:33N 54°35' W 001°13'0 0.0
2014-Aug-29 13:33N 54°35' W 001°13'0 0.0
2014-Aug-29 12:32N 54°35' W 001°13'0 0.0
2014-Aug-29 11:32N 54°35' W 001°13'0 0.0
2014-Aug-29 10:33N 54°35' W 001°13'0 0.0
2014-Aug-29 09:33N 54°35' W 001°13'0 0.0
2014-Aug-29 08:34N 54°35' W 001°13'0 0.0
2014-Aug-29 07:34N 54°35' W 001°13'0 0.0
2014-Aug-29 06:33N 54°35' W 001°13'1 1.4
2014-Aug-29 05:31N 54°36' W 001°15'2 0.2
2014-Aug-28 17:33N 54°35' W 001°12'0 0.0
2014-Aug-28 16:33N 54°35' W 001°12'0 0.0
2014-Aug-28 15:33N 54°35' W 001°12'0 0.0
2014-Aug-28 14:33N 54°35' W 001°12'0 0.0
2014-Aug-28 13:33N 54°35' W 001°12'0 0.0
2014-Aug-28 12:33N 54°35' W 001°12'0 0.0
2014-Aug-28 11:31N 54°35' W 001°12'0 0.0
2014-Aug-28 10:33N 54°35' W 001°12'0 0.0
2014-Aug-28 09:33N 54°35' W 001°12'0 0.0
2014-Aug-28 08:33N 54°35' W 001°12'0 0.0
2014-Aug-28 07:33N 54°35' W 001°12'1 0.7
2014-Aug-28 06:32N 54°35' W 001°13'0 0.0
2014-Aug-27 16:29N 54°35' W 001°13'0 0.0
2014-Aug-27 15:33N 54°35' W 001°13'0 0.0
2014-Aug-27 14:33N 54°35' W 001°13'0 0.0
2014-Aug-27 13:32N 54°35' W 001°13'0 0.0
2014-Aug-27 12:31N 54°35' W 001°13'0 0.0
2014-Aug-27 11:32N 54°35' W 001°13'0 0.0
2014-Aug-27 10:33N 54°35' W 001°13'0 0.0
2014-Aug-27 09:30N 54°35' W 001°13'0 0.0
2014-Aug-27 08:33N 54°35' W 001°13'2 1.9
2014-Aug-27 07:33N 54°36' W 001°10'2 1.8
2014-Aug-27 06:33N 54°38' W 001°10'2 2.4
2014-Aug-27 05:34N 54°36' W 001°11'1 0.1
2014-Aug-26 14:32N 54°36' W 001°10'0 0.0
2014-Aug-26 13:33N 54°36' W 001°10'0 0.0
2014-Aug-26 12:33N 54°36' W 001°10'0 0.2
2014-Aug-26 11:34N 54°36' W 001°10'1 1.0
2014-Aug-26 10:33N 54°37' W 001°09'3 3.2
2014-Aug-26 09:32N 54°35' W 001°13'0 0.0
2014-Aug-26 08:33N 54°35' W 001°13'0 0.0
2014-Aug-25 14:32N 54°35' W 001°13'0 0.0
2014-Aug-25 13:33N 54°35' W 001°13'0 0.0
2014-Aug-25 12:33N 54°35' W 001°13'0 0.0
2014-Aug-25 11:32N 54°35' W 001°13'0 0.0
2014-Aug-25 10:32N 54°35' W 001°13'0 0.0
2014-Aug-25 09:33N 54°35' W 001°13'0 0.0
2014-Aug-25 08:32N 54°35' W 001°13'0 0.0
2014-Aug-25 07:30N 54°35' W 001°13'0 0.0
2014-Aug-25 06:33N 54°35' W 001°13'0 0.0
2014-Aug-24 14:34N 54°35' W 001°13'0 0.0
2014-Aug-24 13:33N 54°35' W 001°13'0 0.0
2014-Aug-24 12:33N 54°35' W 001°13'0 0.0
2014-Aug-24 11:32N 54°35' W 001°13'0 0.0
2014-Aug-24 10:34N 54°35' W 001°13'0 0.0
2014-Aug-24 09:33N 54°35' W 001°13'0 0.0
2014-Aug-24 08:33N 54°35' W 001°13'0 0.0
2014-Aug-24 07:33N 54°35' W 001°13'0 0.0
2014-Aug-24 06:33N 54°35' W 001°13'0 0.0
2014-Aug-22 15:33N 54°35' W 001°13'0 0.0
2014-Aug-22 14:33N 54°35' W 001°13'0 0.0
2014-Aug-22 13:32N 54°35' W 001°13'0 0.0
2014-Aug-22 12:33N 54°35' W 001°13'0 0.0
2014-Aug-22 11:33N 54°35' W 001°13'3 3.0
2014-Aug-22 10:34N 54°37' W 001°09'2 2.4
2014-Aug-22 09:33N 54°35' W 001°12'1 0.6
2014-Aug-22 08:33N 54°35' W 001°13'2 2.2
2014-Aug-22 07:31N 54°36' W 001°10'1 1.5
2014-Aug-22 06:33N 54°38' W 001°10'3 3.1
2014-Aug-22 05:33N 54°35' W 001°12'0 0.0
2014-Aug-21 16:15N 54°35' W 001°13'0 0.0
2014-Aug-21 15:33N 54°35' W 001°13'0 0.0
2014-Aug-21 14:33N 54°35' W 001°13'0 0.0
2014-Aug-21 13:32N 54°35' W 001°13'0 0.0
2014-Aug-21 12:34N 54°35' W 001°13'0 0.0
2014-Aug-21 11:29N 54°35' W 001°13'0 0.0
2014-Aug-21 10:33N 54°35' W 001°13'0 0.0
2014-Aug-21 09:34N 54°35' W 001°13'0 0.0
2014-Aug-21 08:31N 54°35' W 001°13'0 0.0
2014-Aug-21 07:17N 54°35' W 001°13'0 0.0
2014-Aug-21 06:28N 54°35' W 001°13'  

Dump ship's entire track history